Terminal Aerodrome Forecast
Issued by NWS Sterling, VA

Home | Current Version | Previous Version | Text Only | Print | Product List | Glossary On
Versions: 1 2 3 4 5 6 7 8 9 10 11 12 13 14 15 16 17 18 19 20
000
FTUS41 KLWX 052001 AAB
TAFCHO
TAF AMD
KCHO 052001Z 0520/0618 03010G18KT 1/4SM +SN OVC005
     FM052100 03007KT 2SM -SN OVC010
     FM052300 02008KT P6SM OVC025
     FM060300 01004KT P6SM SCT050
     FM060600 35005KT P6SM FEW250=

USA.gov is the U.S. government's official web portal to all federal, state and local government web resources and services.